Terminal Aerodrome Forecast
Issued by NWS Corpus Christi, TX

Home | Current Version | Previous Version | Text Only | Print | Product List | Glossary On
Versions: 1 2 3 4 5 6 7 8 9 10 11 12 13 14 15
000
FTUS44 KCRP 181700
TAFCRP
TAF
KCRP 181720Z 1818/1918 17012G18KT P6SM SCT035 BKN250
     FM182000 14012G18KT P6SM VCTS SCT045CB BKN250
     FM190100 13008KT P6SM SCT025 BKN250
     FM190900 VRB04KT P6SM FEW015 SCT250
     FM191500 14008KT P6SM VCSH SCT025 BKN250=

USA.gov is the U.S. government's official web portal to all federal, state and local government web resources and services.